Time;durP1;ratioP1;P1;durP2;ratioP2;P2;SDS_P1;SDS_P2;PMS_P1;PMS_P2;Temp;Humidity;BMP_temperature;BMP_pressure;BME280_temperature;BME280_humidity;BME280_pressure;Samples;Min_cycle;Max_cycle;Signal;HPM_P1;HPM_P2
2023/04/23 00:02:00;;;;;;;54.38;24.38;;;13.40;99.90;;;;;;4942837;28;20020;-91
2023/04/23 00:05:28;;;;;;;58.85;27.02;;;13.40;99.90;;;;;;4962793;28;20121;-93
2023/04/23 00:07:59;;;;;;;52.22;24.52;;;13.40;99.90;;;;;;4870088;29;20037;-92
2023/04/23 00:10:39;;;;;;;53.00;24.90;;;13.30;99.90;;;;;;4853440;29;20048;-92
2023/04/23 00:13:06;;;;;;;55.58;26.50;;;13.30;99.90;;;;;;4853722;29;20514;-93
2023/04/23 00:15:57;;;;;;;62.70;24.95;;;13.30;99.90;;;;;;4851768;29;20037;-93
2023/04/23 00:18:23;;;;;;;65.57;28.30;;;13.20;99.90;;;;;;4851765;29;20041;-93
2023/04/23 00:23:57;;;;;;;73.85;29.20;;;13.30;99.90;;;;;;5192571;23;20086;-83
2023/04/23 00:26:23;;;;;;;68.35;30.13;;;13.30;99.90;;;;;;4962092;28;20031;-84
2023/04/23 00:28:50;;;;;;;63.45;29.75;;;13.20;99.90;;;;;;4962720;28;20030;-87
2023/04/23 00:31:16;;;;;;;67.13;30.58;;;13.20;99.90;;;;;;4979258;28;20027;-86
2023/04/23 00:33:42;;;;;;;65.00;28.58;;;13.20;99.90;;;;;;4963660;28;20037;-85
2023/04/23 00:36:09;;;;;;;46.38;24.08;;;13.10;99.90;;;;;;4978767;28;20031;-86
2023/04/23 00:38:38;;;;;;;37.55;19.63;;;12.80;99.90;;;;;;4962157;28;20031;-88
2023/04/23 00:41:06;;;;;;;35.58;19.27;;;12.60;99.90;;;;;;4962438;28;20488;-87
2023/04/23 00:43:36;;;;;;;38.15;19.05;;;12.50;99.90;;;;;;4975048;28;20084;-87
2023/04/23 00:48:45;;;;;;;47.65;21.25;;;12.50;99.90;;;;;;5035517;23;20058;-93
2023/04/23 00:51:12;;;;;;;60.08;22.65;;;12.50;99.90;;;;;;4938148;29;20028;-90
2023/04/23 00:53:39;;;;;;;49.70;21.65;;;12.50;99.90;;;;;;4921254;29;20039;-91
2023/04/23 00:56:06;;;;;;;49.45;20.63;;;12.50;99.90;;;;;;4937328;29;20059;-92
2023/04/23 00:58:33;;;;;;;46.53;21.58;;;12.50;99.90;;;;;;4921634;29;20024;-92
2023/04/23 01:01:03;;;;;;;52.25;22.23;;;12.50;99.90;;;;;;4921658;29;20028;-90
2023/04/23 01:03:31;;;;;;;65.78;24.15;;;12.50;99.90;;;;;;4921291;29;20035;-91
2023/04/23 01:05:58;;;;;;;72.40;24.17;;;12.60;99.90;;;;;;4937154;29;20043;-91
2023/04/23 01:08:25;;;;;;;77.53;24.95;;;12.60;99.90;;;;;;4921233;29;20031;-90
2023/04/23 01:10:52;;;;;;;68.75;25.50;;;12.60;99.90;;;;;;4936968;29;20067;-91
2023/04/23 01:13:21;;;;;;;82.10;28.00;;;12.70;99.90;;;;;;4921305;29;20575;-90
2023/04/23 01:15:47;;;;;;;88.20;30.92;;;12.70;99.90;;;;;;4936817;29;20036;-90
2023/04/23 01:18:14;;;;;;;73.68;28.38;;;12.80;99.90;;;;;;4921126;29;20493;-94
2023/04/23 01:20:42;;;;;;;79.30;29.95;;;12.80;99.90;;;;;;4936959;29;20036;-90
2023/04/23 01:23:09;;;;;;;74.70;30.98;;;12.90;99.90;;;;;;4931107;29;20027;-94
2023/04/23 01:25:38;;;;;;;71.20;29.58;;;12.90;99.90;;;;;;4939769;29;20433;-90
2023/04/23 01:28:05;;;;;;;70.88;30.95;;;12.90;99.90;;;;;;4939857;29;20492;-91
2023/04/23 01:30:32;;;;;;;70.32;26.90;;;12.90;99.90;;;;;;4939882;29;20023;-90
2023/04/23 01:33:05;;;;;;;72.07;29.98;;;12.90;99.90;;;;;;4940293;29;20035;-91
2023/04/23 01:35:34;;;;;;;74.93;31.30;;;12.90;99.90;;;;;;4939740;29;20100;-91
2023/04/23 01:38:02;;;;;;;80.00;31.02;;;12.90;99.90;;;;;;4939868;29;20039;-91
2023/04/23 01:40:29;;;;;;;76.53;32.13;;;12.90;99.90;;;;;;4939702;29;20417;-90
2023/04/23 01:42:57;;;;;;;80.18;30.45;;;12.80;99.90;;;;;;4939646;29;20098;-90
2023/04/23 01:45:24;;;;;;;83.18;30.30;;;12.80;99.90;;;;;;4939707;29;20110;-92
2023/04/23 01:47:51;;;;;;;78.72;30.70;;;12.80;99.90;;;;;;4939299;29;20145;-91
2023/04/23 01:50:17;;;;;;;82.78;33.22;;;12.70;99.90;;;;;;4939553;29;20031;-92
2023/04/23 01:52:45;;;;;;;81.10;32.15;;;12.60;99.90;;;;;;4939430;29;20043;-91
2023/04/23 01:55:13;;;;;;;86.07;34.15;;;12.70;99.90;;;;;;4939339;29;20023;-90
2023/04/23 01:57:39;;;;;;;78.50;32.70;;;12.60;99.90;;;;;;4939440;29;20118;-91
2023/04/23 02:00:11;;;;;;;90.93;33.50;;;12.70;99.90;;;;;;4939454;29;20502;-92
2023/04/23 02:02:44;;;;;;;82.78;32.65;;;12.70;99.90;;;;;;4940108;29;20027;-90
2023/04/23 02:05:17;;;;;;;85.35;29.55;;;12.70;99.90;;;;;;4939210;29;20062;-91
2023/04/23 02:07:49;;;;;;;70.13;27.45;;;12.70;99.90;;;;;;4939442;29;20038;-91
2023/04/23 02:10:17;;;;;;;75.53;26.85;;;12.70;99.90;;;;;;4939728;29;20063;-90
2023/04/23 02:12:46;;;;;;;77.20;26.27;;;12.70;99.90;;;;;;4938960;29;20121;-90
2023/04/23 02:15:15;;;;;;;64.60;25.80;;;12.70;99.90;;;;;;4939286;29;20035;-91
2023/04/23 02:17:41;;;;;;;94.20;27.05;;;12.70;99.90;;;;;;4939230;29;20098;-90
2023/04/23 02:20:09;;;;;;;86.00;25.75;;;12.60;99.90;;;;;;4939499;29;20485;-89
2023/04/23 02:22:38;;;;;;;91.97;24.48;;;12.70;99.90;;;;;;4939215;29;20042;-91
2023/04/23 02:25:06;;;;;;;98.25;23.48;;;12.60;99.90;;;;;;4939151;29;20032;-91
2023/04/23 02:27:33;;;;;;;115.10;23.85;;;12.60;99.90;;;;;;4939153;29;20027;-91
2023/04/23 02:29:59;;;;;;;125.15;27.30;;;12.60;99.90;;;;;;4939026;29;20024;-89
2023/04/23 02:32:26;;;;;;;99.50;26.20;;;12.60;99.90;;;;;;4938966;29;20039;-92
2023/04/23 02:34:54;;;;;;;110.78;27.10;;;12.60;99.90;;;;;;4939091;29;20040;-91
2023/04/23 02:37:21;;;;;;;120.75;28.20;;;12.60;99.90;;;;;;4939160;29;20027;-90
2023/04/23 02:39:51;;;;;;;110.53;27.67;;;12.60;99.90;;;;;;4938971;29;20094;-89
2023/04/23 02:42:17;;;;;;;133.50;28.63;;;12.60;99.90;;;;;;4939053;29;20099;-89
2023/04/23 02:44:44;;;;;;;88.13;25.08;;;12.60;99.90;;;;;;4939062;29;20121;-90
2023/04/23 02:47:14;;;;;;;97.45;27.98;;;12.50;99.90;;;;;;4938818;28;20488;-90
2023/04/23 02:49:40;;;;;;;63.53;22.27;;;12.50;99.90;;;;;;4939029;29;20043;-89
2023/04/23 02:52:07;;;;;;;111.90;24.77;;;12.40;99.90;;;;;;4938946;29;20729;-89
2023/04/23 02:54:33;;;;;;;85.60;23.65;;;12.30;99.90;;;;;;4938969;29;20066;-90
2023/04/23 02:57:00;;;;;;;53.70;21.73;;;12.20;99.90;;;;;;4938862;29;20492;-92
2023/04/23 02:59:27;;;;;;;55.53;19.23;;;12.20;99.90;;;;;;4938825;29;20039;-90
2023/04/23 03:01:54;;;;;;;52.47;19.98;;;12.20;99.90;;;;;;4938929;29;20030;-91
2023/04/23 03:04:21;;;;;;;48.83;20.92;;;12.10;99.90;;;;;;4938871;28;20045;-92
2023/04/23 03:06:49;;;;;;;47.65;19.25;;;12.00;99.90;;;;;;4938715;29;20159;-89
2023/04/23 03:09:15;;;;;;;53.55;21.00;;;11.90;99.90;;;;;;4938877;29;20477;-90
2023/04/23 03:11:42;;;;;;;51.97;19.83;;;11.90;99.90;;;;;;4939399;29;20028;-90
2023/04/23 03:14:13;;;;;;;40.55;17.80;;;11.80;99.90;;;;;;4939046;29;20114;-90
2023/04/23 03:16:40;;;;;;;46.13;19.63;;;11.80;99.90;;;;;;4940444;29;20045;-89
2023/04/23 03:19:06;;;;;;;44.47;17.88;;;11.80;99.90;;;;;;4942340;29;20051;-92
2023/04/23 03:21:33;;;;;;;42.78;18.70;;;11.80;99.90;;;;;;4942396;29;20074;-90
2023/04/23 03:24:00;;;;;;;41.75;18.65;;;11.80;99.90;;;;;;4942247;29;20031;-90
2023/04/23 03:26:26;;;;;;;39.20;17.67;;;11.80;99.90;;;;;;4942011;29;20031;-90
2023/04/23 03:28:53;;;;;;;35.67;17.08;;;11.80;99.90;;;;;;4923056;29;20051;-91
2023/04/23 03:31:22;;;;;;;29.80;15.27;;;11.60;99.90;;;;;;4923121;29;20115;-90
2023/04/23 03:33:49;;;;;;;38.70;16.00;;;11.40;99.90;;;;;;4922932;29;20067;-92
2023/04/23 03:36:22;;;;;;;69.80;16.67;;;11.30;99.90;;;;;;4923754;29;20036;-89
2023/04/23 03:38:49;;;;;;;86.15;21.40;;;11.20;99.90;;;;;;4922921;29;20038;-90
2023/04/23 03:41:17;;;;;;;42.15;16.83;;;11.20;99.90;;;;;;4923134;29;20027;-90
2023/04/23 03:43:44;;;;;;;38.15;17.95;;;11.20;99.90;;;;;;4922859;29;20051;-93
2023/04/23 03:46:29;;;;;;;30.55;15.38;;;11.20;99.90;;;;;;4925066;29;20024;-90
2023/04/23 03:48:56;;;;;;;28.17;15.05;;;11.10;99.90;;;;;;4922696;29;20071;-90
2023/04/23 03:51:27;;;;;;;29.45;14.32;;;11.00;99.90;;;;;;4923203;29;20106;-89
2023/04/23 03:53:54;;;;;;;37.10;15.98;;;10.90;99.90;;;;;;4922881;29;20067;-90
2023/04/23 03:56:33;;;;;;;51.90;15.63;;;10.80;99.90;;;;;;4924172;29;20027;-91
2023/04/23 03:59:24;;;;;;;23.80;15.20;;;10.80;99.90;;;;;;4925256;29;20031;-89
2023/04/23 04:01:54;;;;;;;24.90;14.48;;;10.90;99.90;;;;;;4923100;29;20122;-91
2023/04/23 04:04:20;;;;;;;35.67;15.63;;;10.90;99.90;;;;;;4922338;29;20035;-90
2023/04/23 04:06:50;;;;;;;46.88;15.55;;;10.90;99.90;;;;;;4922624;29;20070;-90
2023/04/23 04:09:16;;;;;;;49.80;15.65;;;10.90;99.90;;;;;;4922285;29;20057;-90
2023/04/23 04:11:42;;;;;;;29.17;14.88;;;10.90;99.90;;;;;;4922404;29;20032;-91
2023/04/23 04:14:09;;;;;;;33.80;15.13;;;11.00;99.90;;;;;;4922150;29;20040;-89
2023/04/23 04:16:35;;;;;;;40.00;14.48;;;11.00;99.90;;;;;;4922323;29;20485;-92
2023/04/23 04:19:02;;;;;;;27.05;13.05;;;11.00;99.90;;;;;;4922450;29;20028;-90
2023/04/23 04:21:28;;;;;;;50.97;13.60;;;11.00;99.90;;;;;;4922319;29;20030;-90
2023/04/23 04:23:55;;;;;;;41.75;13.13;;;11.00;99.90;;;;;;4922209;29;20032;-90
2023/04/23 04:26:22;;;;;;;26.65;13.63;;;10.90;99.90;;;;;;4922198;29;20114;-92
2023/04/23 04:28:50;;;;;;;21.25;12.10;;;11.00;99.90;;;;;;4921334;29;20035;-90
2023/04/23 04:31:20;;;;;;;24.08;12.73;;;11.00;99.90;;;;;;4922006;29;20024;-90
2023/04/23 04:33:57;;;;;;;24.38;12.85;;;11.10;99.90;;;;;;4921864;29;20050;-90
2023/04/23 04:36:27;;;;;;;16.00;10.77;;;11.10;99.90;;;;;;4921895;29;20032;-92
2023/04/23 04:38:54;;;;;;;17.35;10.85;;;11.10;99.90;;;;;;4921851;29;20039;-90
2023/04/23 04:41:24;;;;;;;17.13;11.88;;;11.10;99.90;;;;;;4922179;29;20042;-92
2023/04/23 04:43:51;;;;;;;12.63;9.48;;;11.20;99.90;;;;;;4921847;29;20028;-91
2023/04/23 04:46:20;;;;;;;14.32;9.98;;;11.20;99.90;;;;;;4921642;29;20036;-93
2023/04/23 04:48:47;;;;;;;12.27;9.55;;;11.30;99.90;;;;;;4921576;29;20062;-92
2023/04/23 04:51:14;;;;;;;14.20;11.75;;;11.30;99.90;;;;;;4921634;29;20046;-91
2023/04/23 04:53:41;;;;;;;12.95;9.75;;;11.40;99.90;;;;;;4921517;29;20039;-92
2023/04/23 04:56:08;;;;;;;12.45;9.73;;;11.60;99.90;;;;;;4921572;29;20027;-92
2023/04/23 04:58:35;;;;;;;9.30;8.15;;;12.00;99.90;;;;;;4921565;29;20116;-93
2023/04/23 05:01:01;;;;;;;7.82;6.80;;;12.80;99.90;;;;;;4921551;29;20035;-91
2023/04/23 05:03:28;;;;;;;6.30;5.75;;;14.10;99.90;;;;;;4921430;29;20035;-91
2023/04/23 05:05:55;;;;;;;6.80;6.20;;;15.20;99.90;;;;;;4921286;29;20019;-93
2023/04/23 05:08:22;;;;;;;7.18;6.57;;;15.90;99.90;;;;;;4921120;29;20042;-92
2023/04/23 05:10:52;;;;;;;10.27;9.57;;;16.70;99.90;;;;;;4921157;29;20023;-91
2023/04/23 05:13:19;;;;;;;15.95;14.75;;;17.60;99.90;;;;;;4921138;29;20035;-93
2023/04/23 05:15:46;;;;;;;18.95;17.75;;;18.50;99.90;;;;;;4921233;29;20035;-93
2023/04/23 05:18:12;;;;;;;19.27;18.08;;;19.20;99.90;;;;;;4921327;29;20043;-92
2023/04/23 05:20:40;;;;;;;20.50;19.13;;;20.00;99.90;;;;;;4921034;29;20031;-91
2023/04/23 05:23:07;;;;;;;22.42;20.83;;;20.20;99.90;;;;;;4920945;29;20099;-92
2023/04/23 05:25:34;;;;;;;23.60;22.10;;;20.60;99.90;;;;;;4920865;29;20481;-91
2023/04/23 05:28:01;;;;;;;23.65;22.15;;;21.10;99.90;;;;;;4902114;29;20035;-92
2023/04/23 05:30:28;;;;;;;23.88;22.27;;;21.40;99.90;;;;;;4901931;29;20035;-92
2023/04/23 05:32:55;;;;;;;24.58;22.77;;;22.00;99.90;;;;;;4901997;29;20121;-92
2023/04/23 05:35:33;;;;;;;22.80;21.17;;;23.10;99.90;;;;;;4901986;29;20087;-91
2023/04/23 05:38:01;;;;;;;22.52;21.02;;;23.70;99.90;;;;;;4901907;29;20051;-95
2023/04/23 05:40:28;;;;;;;22.40;20.95;;;24.00;99.90;;;;;;4901076;29;20034;-92
2023/04/23 05:42:57;;;;;;;22.58;21.08;;;23.60;99.90;;;;;;4901886;29;20032;-93
2023/04/23 05:45:24;;;;;;;22.35;21.00;;;23.80;99.90;;;;;;4902045;29;20024;-92
2023/04/23 05:47:51;;;;;;;22.88;21.27;;;23.10;99.90;;;;;;4901635;29;20561;-94
2023/04/23 05:50:18;;;;;;;22.27;20.98;;;23.60;99.90;;;;;;4901597;29;20036;-92
2023/04/23 05:52:45;;;;;;;21.98;20.63;;;23.70;99.90;;;;;;4901448;29;20040;-93
2023/04/23 05:55:11;;;;;;;23.10;21.30;;;23.60;99.90;;;;;;4901596;29;20036;-91
2023/04/23 05:57:38;;;;;;;22.23;20.88;;;23.20;99.90;;;;;;4901460;29;20039;-93
2023/04/23 06:00:08;;;;;;;23.42;21.42;;;23.50;99.90;;;;;;4917365;29;20506;-90
2023/04/23 06:02:41;;;;;;;22.23;20.92;;;24.10;99.90;;;;;;4902499;29;20088;-91
2023/04/23 06:05:08;;;;;;;23.08;21.48;;;24.70;99.90;;;;;;4901431;29;20490;-90
2023/04/23 06:07:35;;;;;;;22.98;21.40;;;24.20;99.90;;;;;;4901538;29;20115;-91
2023/04/23 06:10:04;;;;;;;23.25;21.55;;;23.70;99.90;;;;;;4901444;29;20039;-92
2023/04/23 06:12:31;;;;;;;22.27;20.77;;;24.20;99.90;;;;;;4901389;29;20064;-91
2023/04/23 06:14:57;;;;;;;22.65;21.15;;;23.90;99.90;;;;;;4901898;29;20064;-88
2023/04/23 06:17:24;;;;;;;22.50;20.95;;;24.90;99.90;;;;;;4901222;29;20028;-91
2023/04/23 06:19:51;;;;;;;22.27;20.85;;;23.60;99.90;;;;;;4901052;29;20027;-90
2023/04/23 06:22:20;;;;;;;22.25;20.88;;;22.90;99.90;;;;;;4912884;29;20123;-90
2023/04/23 06:24:47;;;;;;;21.67;20.17;;;22.10;99.90;;;;;;4917019;29;20064;-92
2023/04/23 06:27:13;;;;;;;21.83;20.35;;;22.10;99.90;;;;;;4916735;29;20120;-93
2023/04/23 06:29:45;;;;;;;21.83;20.20;;;21.80;99.90;;;;;;4917682;29;20032;-91
2023/04/23 06:32:12;;;;;;;21.95;20.38;;;22.10;99.90;;;;;;4916870;29;20032;-90
2023/04/23 06:34:38;;;;;;;22.58;21.20;;;22.30;99.90;;;;;;4901153;29;20067;-91
2023/04/23 06:37:05;;;;;;;22.17;20.80;;;23.10;99.90;;;;;;4901437;29;20473;-92
2023/04/23 06:39:31;;;;;;;22.13;20.83;;;23.70;99.90;;;;;;4901099;29;20036;-89
2023/04/23 06:41:58;;;;;;;22.98;21.23;;;23.50;99.90;;;;;;4901248;29;20565;-90
2023/04/23 06:44:47;;;;;;;23.95;22.25;;;23.80;99.90;;;;;;4917265;29;20055;-90
2023/04/23 06:47:13;;;;;;;23.30;21.65;;;23.90;99.90;;;;;;4901009;29;20052;-90
2023/04/23 06:49:40;;;;;;;23.33;21.92;;;23.20;99.90;;;;;;4901390;29;20082;-90
2023/04/23 06:52:06;;;;;;;23.77;21.98;;;24.10;99.90;;;;;;4903336;29;20129;-91
2023/04/23 06:54:33;;;;;;;24.52;22.92;;;23.60;99.90;;;;;;4904898;29;20028;-91
2023/04/23 16:29:37;;;;;;;21.90;20.40;;;20.80;99.90;;;;;;4973957;28;20107;-90
2023/04/23 16:32:04;;;;;;;22.45;21.00;;;20.80;99.90;;;;;;4976470;28;20054;-91
2023/04/23 16:34:31;;;;;;;22.70;20.98;;;20.70;99.90;;;;;;4977202;28;20066;-89
2023/04/23 16:36:59;;;;;;;22.90;21.20;;;20.70;99.90;;;;;;4960015;28;20023;-90
2023/04/23 16:39:26;;;;;;;22.08;20.52;;;20.60;99.90;;;;;;4959273;28;20038;-91
2023/04/23 16:41:52;;;;;;;22.27;20.85;;;20.70;99.90;;;;;;4960136;28;20369;-89
2023/04/23 16:44:19;;;;;;;22.48;20.92;;;20.50;99.90;;;;;;4960168;28;20023;-90
2023/04/23 16:46:45;;;;;;;22.48;20.98;;;20.40;99.90;;;;;;4960090;28;20037;-93
2023/04/23 16:49:15;;;;;;;21.42;20.02;;;20.30;99.90;;;;;;4959895;28;20395;-92
2023/04/23 16:51:42;;;;;;;22.25;20.85;;;20.10;99.90;;;;;;4959977;28;20058;-95
2023/04/23 16:54:08;;;;;;;23.02;21.40;;;20.00;99.90;;;;;;4961231;28;20041;-94
2023/04/23 16:56:35;;;;;;;23.45;21.95;;;19.90;99.90;;;;;;4961552;28;20041;-95
2023/04/23 16:59:02;;;;;;;23.00;21.52;;;19.90;99.90;;;;;;4959768;28;20054;-93
2023/04/23 17:01:28;;;;;;;23.67;22.08;;;19.80;99.90;;;;;;4959620;28;20400;-93
2023/04/23 17:03:55;;;;;;;23.13;21.73;;;19.70;99.90;;;;;;4959582;28;20113;-92
2023/04/23 17:06:32;;;;;;;22.88;21.02;;;19.60;99.90;;;;;;4959485;28;20031;-93
2023/04/23 17:09:01;;;;;;;21.63;20.23;;;19.60;99.90;;;;;;4960388;28;20089;-91
2023/04/23 17:11:29;;;;;;;22.77;21.23;;;19.40;99.90;;;;;;4960383;28;20030;-92
2023/04/23 17:13:59;;;;;;;23.10;21.27;;;19.40;99.90;;;;;;4961118;28;20031;-92
2023/04/23 17:16:26;;;;;;;23.33;21.58;;;19.20;99.90;;;;;;4960040;28;20042;-94
2023/04/23 17:18:53;;;;;;;22.30;20.88;;;19.20;99.90;;;;;;4962362;28;20023;-94
2023/04/23 17:21:20;;;;;;;23.55;21.60;;;19.10;99.90;;;;;;4975739;28;20038;-94
2023/04/23 17:23:47;;;;;;;23.60;21.50;;;19.00;99.90;;;;;;4959625;28;20027;-93
2023/04/23 17:26:13;;;;;;;22.65;21.15;;;19.00;99.90;;;;;;4959495;28;20027;-94
2023/04/23 17:28:43;;;;;;;22.45;20.95;;;18.90;99.90;;;;;;4959232;28;20159;-94
2023/04/23 17:31:10;;;;;;;24.27;22.42;;;18.80;99.90;;;;;;4961134;28;20026;-93
2023/04/23 17:33:37;;;;;;;23.60;21.77;;;18.80;99.90;;;;;;4962291;28;20042;-94
2023/04/23 17:36:04;;;;;;;22.80;21.00;;;18.60;99.90;;;;;;4960236;28;20088;-94
2023/04/23 17:38:31;;;;;;;22.35;20.63;;;18.60;99.90;;;;;;4959302;28;20033;-94
2023/04/23 17:40:59;;;;;;;23.08;21.48;;;18.50;99.90;;;;;;4959318;28;20122;-93
2023/04/23 17:43:26;;;;;;;22.95;21.42;;;18.50;99.90;;;;;;4959590;28;20033;-94
2023/04/23 17:45:53;;;;;;;23.40;21.73;;;18.40;99.90;;;;;;4960640;28;20030;-94
2023/04/23 17:48:21;;;;;;;23.00;21.55;;;18.30;99.90;;;;;;4959337;28;20022;-94
2023/04/23 17:50:48;;;;;;;23.77;22.15;;;18.20;99.90;;;;;;4958998;28;20101;-95
2023/04/23 17:53:15;;;;;;;24.17;22.08;;;18.20;99.90;;;;;;4959629;28;20027;-94
2023/04/23 17:55:41;;;;;;;22.95;21.35;;;18.10;99.90;;;;;;4958975;28;20047;-93
2023/04/23 17:58:08;;;;;;;23.92;22.10;;;18.00;99.90;;;;;;4959359;28;20038;-93
2023/04/23 18:00:43;;;;;;;24.27;22.48;;;17.90;99.90;;;;;;4958627;28;20121;-95
2023/04/23 18:03:15;;;;;;;24.58;22.73;;;17.80;99.90;;;;;;4957256;28;20498;-92
2023/04/23 18:05:44;;;;;;;25.35;23.45;;;17.80;99.90;;;;;;4947198;29;20047;-91
2023/04/23 18:08:11;;;;;;;25.27;23.38;;;17.70;99.90;;;;;;4950279;28;20058;-92
2023/04/23 18:10:38;;;;;;;24.83;22.85;;;17.70;99.90;;;;;;4971401;28;20027;-92
2023/04/23 18:13:07;;;;;;;25.83;23.75;;;17.60;99.90;;;;;;4971312;28;20061;-93
2023/04/23 18:15:34;;;;;;;30.80;28.10;;;17.50;99.90;;;;;;4971394;28;20023;-92
2023/04/23 18:18:01;;;;;;;35.15;31.55;;;17.40;99.90;;;;;;4972339;28;20033;-91
2023/04/23 18:20:27;;;;;;;33.83;30.17;;;17.30;99.90;;;;;;4971579;28;20066;-93
2023/04/23 18:22:53;;;;;;;27.33;25.02;;;17.20;99.90;;;;;;4972536;28;20030;-93
2023/04/23 18:25:20;;;;;;;25.88;23.65;;;17.20;99.90;;;;;;4971349;28;20046;-92
2023/04/23 18:27:47;;;;;;;25.70;23.42;;;17.20;99.90;;;;;;4971327;28;20462;-92
2023/04/23 18:30:14;;;;;;;25.58;23.67;;;17.20;99.90;;;;;;4971482;28;20039;-92
2023/04/23 18:32:47;;;;;;;29.17;26.40;;;17.20;99.90;;;;;;4971159;28;20024;-92
2023/04/23 18:35:13;;;;;;;28.20;25.67;;;17.20;99.90;;;;;;4971327;28;20035;-93
2023/04/23 18:38:05;;;;;;;28.80;26.15;;;17.00;99.90;;;;;;4979096;28;20027;-92
2023/04/23 18:40:33;;;;;;;26.67;24.35;;;17.00;99.90;;;;;;4971192;28;20512;-96
2023/04/23 18:43:00;;;;;;;26.35;24.05;;;16.90;99.90;;;;;;4971957;28;20036;-93
2023/04/23 18:45:26;;;;;;;27.55;25.00;;;16.80;99.90;;;;;;4971190;28;20034;-93
2023/04/23 18:48:01;;;;;;;28.42;25.58;;;16.70;99.90;;;;;;4972931;28;20054;-92
2023/04/23 18:50:41;;;;;;;27.80;25.50;;;16.70;99.90;;;;;;4974862;28;20063;-92
2023/04/23 18:53:10;;;;;;;28.58;25.77;;;16.50;99.90;;;;;;4975796;28;20051;-91
2023/04/23 18:55:36;;;;;;;28.88;26.02;;;16.40;99.90;;;;;;4975106;28;20480;-93
2023/04/23 18:58:03;;;;;;;30.98;28.23;;;16.30;99.90;;;;;;4974845;28;20035;-94
2023/04/23 19:00:30;;;;;;;30.33;27.60;;;16.30;99.90;;;;;;4974581;28;20028;-93
2023/04/23 19:02:57;;;;;;;30.17;27.48;;;16.20;99.90;;;;;;4974819;28;20035;-91
2023/04/23 19:05:24;;;;;;;30.67;27.75;;;16.10;99.90;;;;;;4974945;28;20455;-92
2023/04/23 19:07:51;;;;;;;31.25;28.40;;;16.10;99.90;;;;;;4980575;28;20034;-93
2023/04/23 19:10:17;;;;;;;30.42;27.85;;;16.00;99.90;;;;;;4989444;28;20038;-93
2023/04/23 19:12:47;;;;;;;30.70;27.75;;;16.00;99.90;;;;;;4977717;28;20534;-91
2023/04/23 19:15:16;;;;;;;31.67;28.45;;;16.00;99.90;;;;;;4977901;28;20038;-93
2023/04/23 19:17:43;;;;;;;31.73;28.63;;;16.00;99.90;;;;;;4961692;28;20039;-92
2023/04/23 19:20:09;;;;;;;32.17;29.02;;;15.90;99.90;;;;;;4977717;28;20130;-93
2023/04/23 19:22:37;;;;;;;30.25;27.30;;;15.90;99.90;;;;;;4961432;28;20049;-93
2023/04/23 19:25:04;;;;;;;30.55;27.70;;;15.90;99.90;;;;;;4977538;28;20137;-93
2023/04/23 19:27:31;;;;;;;29.23;26.42;;;15.90;99.90;;;;;;4961314;28;20026;-90
2023/04/23 19:29:59;;;;;;;28.58;25.77;;;15.80;99.90;;;;;;4961258;28;20042;-92
2023/04/23 19:32:28;;;;;;;28.92;26.33;;;15.70;99.90;;;;;;4961223;28;20027;-93
2023/04/23 19:34:55;;;;;;;28.63;26.05;;;15.70;99.90;;;;;;4977619;28;20027;-93
2023/04/23 19:37:22;;;;;;;27.67;25.00;;;15.50;99.90;;;;;;4961454;28;20027;-92
2023/04/23 19:39:49;;;;;;;27.27;24.42;;;15.40;99.90;;;;;;4977140;28;20026;-92
2023/04/23 19:42:15;;;;;;;25.55;23.20;;;15.30;99.90;;;;;;4977232;28;20437;-92
2023/04/23 19:44:41;;;;;;;26.02;23.48;;;15.30;99.90;;;;;;4977536;28;20384;-92
2023/04/23 19:47:08;;;;;;;26.88;24.25;;;15.10;99.90;;;;;;4961073;28;20480;-92
2023/04/23 19:49:35;;;;;;;26.83;24.30;;;15.10;99.90;;;;;;4977005;28;20536;-92
2023/04/23 19:52:03;;;;;;;25.83;23.27;;;15.00;99.90;;;;;;4960935;28;20073;-91
2023/04/23 19:54:29;;;;;;;26.15;22.23;;;15.00;99.90;;;;;;4977559;28;20122;-93
2023/04/23 19:56:56;;;;;;;26.80;22.27;;;15.00;99.90;;;;;;4978040;28;20059;-92
2023/04/23 19:59:22;;;;;;;25.90;22.83;;;15.00;99.90;;;;;;4959601;28;20121;-94
2023/04/23 20:01:50;;;;;;;24.83;21.83;;;15.10;99.90;;;;;;4976818;28;20023;-92
2023/04/23 20:04:16;;;;;;;22.92;20.55;;;15.10;99.90;;;;;;4963542;28;20027;-91
2023/04/23 20:06:43;;;;;;;23.80;21.20;;;15.20;99.90;;;;;;4977113;28;20488;-92
2023/04/23 20:09:16;;;;;;;23.65;21.17;;;15.30;99.90;;;;;;4960577;28;20491;-91
2023/04/23 20:11:47;;;;;;;24.95;21.98;;;15.40;99.90;;;;;;4960713;28;20067;-91
2023/04/23 20:14:14;;;;;;;23.55;21.13;;;15.40;99.90;;;;;;4976670;28;20059;-91
2023/04/23 20:16:40;;;;;;;22.67;20.40;;;15.50;99.90;;;;;;4960727;28;20034;-91
2023/04/23 20:19:10;;;;;;;22.95;20.70;;;15.50;99.90;;;;;;4976445;28;20031;-91
2023/04/23 20:21:37;;;;;;;22.92;19.98;;;15.60;99.90;;;;;;4976702;28;20034;-91
2023/04/23 20:24:06;;;;;;;22.33;20.33;;;15.60;99.90;;;;;;4976650;28;20031;-93
2023/04/23 20:26:34;;;;;;;22.58;20.27;;;15.60;99.90;;;;;;4976719;28;20042;-92
2023/04/23 20:29:02;;;;;;;22.35;20.15;;;15.60;99.90;;;;;;4976407;28;20150;-90
2023/04/23 20:31:28;;;;;;;23.02;19.42;;;15.60;99.90;;;;;;4976808;28;20030;-92
2023/04/23 20:33:55;;;;;;;22.98;20.70;;;15.50;99.90;;;;;;4960467;28;20393;-93
2023/04/23 20:36:27;;;;;;;20.83;18.92;;;15.50;99.90;;;;;;4960201;28;20476;-91
2023/04/23 20:38:58;;;;;;;22.42;20.13;;;15.50;99.90;;;;;;4976115;28;20038;-90
2023/04/23 20:41:33;;;;;;;20.77;18.85;;;15.40;99.90;;;;;;4959994;28;20061;-91
2023/04/23 20:44:07;;;;;;;21.77;19.55;;;15.30;99.90;;;;;;4960037;28;20058;-92
2023/04/23 20:46:35;;;;;;;21.83;19.52;;;15.10;99.90;;;;;;4960206;28;20037;-91
2023/04/23 20:49:02;;;;;;;21.02;18.92;;;15.00;99.90;;;;;;4975934;28;20031;-94
2023/04/23 20:51:32;;;;;;;21.98;19.90;;;14.90;99.90;;;;;;4960639;28;20034;-92
2023/04/23 20:54:00;;;;;;;22.02;19.80;;;14.70;99.90;;;;;;4975887;28;20049;-93
2023/04/23 20:56:27;;;;;;;20.38;18.33;;;14.60;99.90;;;;;;4975996;28;20110;-91
2023/04/23 20:58:56;;;;;;;23.20;19.35;;;14.50;99.90;;;;;;4959835;28;20037;-90
2023/04/23 21:01:23;;;;;;;21.05;18.85;;;14.40;99.90;;;;;;4975724;28;20026;-91
2023/04/23 21:03:53;;;;;;;20.88;18.50;;;14.30;99.90;;;;;;4975529;28;20035;-91
2023/04/23 21:06:20;;;;;;;21.48;18.13;;;14.30;99.90;;;;;;4959634;28;20034;-93
2023/04/23 21:08:47;;;;;;;20.23;18.00;;;14.20;99.90;;;;;;4975475;28;20618;-92
2023/04/23 21:11:16;;;;;;;21.83;17.02;;;14.20;99.90;;;;;;4959424;28;20031;-92
2023/04/23 21:13:47;;;;;;;21.90;17.98;;;14.20;99.90;;;;;;4975810;28;20039;-92
2023/04/23 21:16:14;;;;;;;21.23;16.90;;;14.00;99.90;;;;;;4959554;28;20031;-92
2023/04/23 21:18:43;;;;;;;44.47;26.42;;;14.00;99.90;;;;;;4975477;28;20023;-91
2023/04/23 21:21:10;;;;;;;21.90;17.98;;;13.90;99.90;;;;;;4959216;28;20026;-89
2023/04/23 21:23:36;;;;;;;20.05;17.83;;;13.90;99.90;;;;;;4975329;28;20038;-92
2023/04/23 21:26:03;;;;;;;19.38;17.38;;;13.80;99.90;;;;;;4975371;28;20033;-91
2023/04/23 21:28:30;;;;;;;21.23;17.23;;;13.80;99.90;;;;;;4975286;28;20097;-90
2023/04/23 21:31:06;;;;;;;18.42;16.30;;;13.80;99.90;;;;;;4975553;28;20027;-90
2023/04/23 21:33:33;;;;;;;20.27;16.52;;;13.70;99.90;;;;;;4958965;28;20034;-92
2023/04/23 21:35:59;;;;;;;20.08;16.35;;;13.70;99.90;;;;;;4975670;28;20487;-90
2023/04/23 21:38:26;;;;;;;19.15;16.05;;;13.60;99.90;;;;;;4959715;28;20432;-91
2023/04/23 21:40:52;;;;;;;20.35;17.08;;;13.50;99.90;;;;;;4975220;28;20034;-88
2023/04/23 21:43:19;;;;;;;20.80;16.35;;;13.60;99.90;;;;;;4958976;28;20030;-92
2023/04/23 21:45:46;;;;;;;20.27;16.33;;;13.50;99.90;;;;;;4974915;28;20034;-90
2023/04/23 21:48:13;;;;;;;18.88;15.13;;;13.50;99.90;;;;;;4958835;28;20114;-92
2023/04/23 21:50:40;;;;;;;19.30;14.88;;;13.50;99.90;;;;;;4975126;28;20114;-90
2023/04/23 21:53:07;;;;;;;17.75;15.23;;;13.50;99.90;;;;;;4974549;28;20050;-90
2023/04/23 21:55:33;;;;;;;17.27;15.15;;;13.50;99.90;;;;;;4958727;28;20084;-92
2023/04/23 21:58:00;;;;;;;16.58;14.13;;;13.50;99.90;;;;;;4974750;28;20053;-92
2023/04/23 22:00:27;;;;;;;16.17;14.20;;;13.50;99.90;;;;;;4958611;28;20031;-91
2023/04/23 22:02:54;;;;;;;18.25;13.88;;;13.40;99.90;;;;;;4958560;28;20031;-91
2023/04/23 22:05:24;;;;;;;19.35;14.95;;;13.40;99.90;;;;;;4958533;28;20054;-92
2023/04/23 22:07:52;;;;;;;18.15;15.25;;;13.30;99.90;;;;;;4958618;28;20027;-90
2023/04/23 22:10:20;;;;;;;17.17;15.25;;;13.20;99.90;;;;;;4994052;28;20023;-92
2023/04/23 22:12:47;;;;;;;21.27;15.35;;;13.20;99.90;;;;;;4993814;28;20038;-92